sensor_id;sensor_type;location;lat;lon;timestamp;pressure;altitude;pressure_sealevel;temperature;humidity
35291;BME280;21411;50.024;19.220;2022-12-19T00:00:30;101084.41;;;-10.60;100.00
35291;BME280;21411;50.024;19.220;2022-12-19T00:03:15;101081.98;;;-10.61;100.00
35291;BME280;21411;50.024;19.220;2022-12-19T00:05:44;101079.54;;;-10.62;100.00
35291;BME280;21411;50.024;19.220;2022-12-19T00:08:15;101077.27;;;-10.62;100.00
35291;BME280;21411;50.024;19.220;2022-12-19T00:10:53;101071.52;;;-10.61;100.00
35291;BME280;21411;50.024;19.220;2022-12-19T00:13:20;101072.27;;;-10.59;100.00
35291;BME280;21411;50.024;19.220;2022-12-19T00:15:46;101061.94;;;-10.60;100.00
35291;BME280;21411;50.024;19.220;2022-12-19T00:18:11;101052.27;;;-10.61;100.00
35291;BME280;21411;50.024;19.220;2022-12-19T00:20:37;101051.09;;;-10.60;100.00
35291;BME280;21411;50.024;19.220;2022-12-19T00:23:03;101045.80;;;-10.60;100.00
35291;BME280;21411;50.024;19.220;2022-12-19T00:25:29;101040.89;;;-10.58;100.00
35291;BME280;21411;50.024;19.220;2022-12-19T00:27:55;101035.30;;;-10.56;100.00
35291;BME280;21411;50.024;19.220;2022-12-19T00:30:21;101034.29;;;-10.56;100.00
35291;BME280;21411;50.024;19.220;2022-12-19T00:32:47;101032.48;;;-10.55;100.00
35291;BME280;21411;50.024;19.220;2022-12-19T00:35:13;101033.88;;;-10.54;100.00
35291;BME280;21411;50.024;19.220;2022-12-19T00:37:41;101032.73;;;-10.53;100.00
35291;BME280;21411;50.024;19.220;2022-12-19T00:40:07;101032.06;;;-10.53;100.00
35291;BME280;21411;50.024;19.220;2022-12-19T00:42:33;101036.04;;;-10.52;100.00
35291;BME280;21411;50.024;19.220;2022-12-19T00:45:00;101039.61;;;-10.53;100.00
35291;BME280;21411;50.024;19.220;2022-12-19T00:47:26;101033.99;;;-10.52;100.00
35291;BME280;21411;50.024;19.220;2022-12-19T00:49:52;101029.88;;;-10.52;100.00
35291;BME280;21411;50.024;19.220;2022-12-19T00:52:18;101026.27;;;-10.52;100.00
35291;BME280;21411;50.024;19.220;2022-12-19T00:54:44;101020.26;;;-10.52;100.00
35291;BME280;21411;50.024;19.220;2022-12-19T00:57:10;101021.76;;;-10.53;100.00
35291;BME280;21411;50.024;19.220;2022-12-19T00:59:36;101018.77;;;-10.54;100.00
35291;BME280;21411;50.024;19.220;2022-12-19T01:02:02;101021.12;;;-10.55;100.00
35291;BME280;21411;50.024;19.220;2022-12-19T01:04:28;101023.47;;;-10.56;100.00
35291;BME280;21411;50.024;19.220;2022-12-19T01:06:54;101023.20;;;-10.58;100.00
35291;BME280;21411;50.024;19.220;2022-12-19T01:09:19;101022.77;;;-10.60;100.00
35291;BME280;21411;50.024;19.220;2022-12-19T01:11:47;101021.67;;;-10.61;100.00
35291;BME280;21411;50.024;19.220;2022-12-19T01:14:33;101022.33;;;-10.62;100.00
35291;BME280;21411;50.024;19.220;2022-12-19T01:16:59;101022.97;;;-10.63;100.00
35291;BME280;21411;50.024;19.220;2022-12-19T01:19:25;101016.70;;;-10.64;100.00
35291;BME280;21411;50.024;19.220;2022-12-19T01:21:52;101012.75;;;-10.65;100.00
35291;BME280;21411;50.024;19.220;2022-12-19T01:24:18;101017.70;;;-10.66;100.00
35291;BME280;21411;50.024;19.220;2022-12-19T01:26:45;101014.69;;;-10.67;100.00
35291;BME280;21411;50.024;19.220;2022-12-19T01:29:12;101009.85;;;-10.68;100.00
35291;BME280;21411;50.024;19.220;2022-12-19T01:31:38;101002.45;;;-10.68;100.00
35291;BME280;21411;50.024;19.220;2022-12-19T01:34:03;100995.84;;;-10.70;100.00
35291;BME280;21411;50.024;19.220;2022-12-19T01:36:31;100990.06;;;-10.72;100.00
35291;BME280;21411;50.024;19.220;2022-12-19T01:38:57;100984.30;;;-10.74;100.00
35291;BME280;21411;50.024;19.220;2022-12-19T01:41:23;100978.19;;;-10.76;100.00
35291;BME280;21411;50.024;19.220;2022-12-19T01:43:59;100976.23;;;-10.77;100.00
35291;BME280;21411;50.024;19.220;2022-12-19T01:46:36;100972.52;;;-10.79;100.00
35291;BME280;21411;50.024;19.220;2022-12-19T01:49:15;100964.52;;;-10.81;100.00
35291;BME280;21411;50.024;19.220;2022-12-19T01:51:46;100962.02;;;-10.83;100.00
35291;BME280;21411;50.024;19.220;2022-12-19T01:54:15;100954.94;;;-10.84;100.00
35291;BME280;21411;50.024;19.220;2022-12-19T01:56:44;100951.96;;;-10.85;100.00
35291;BME280;21411;50.024;19.220;2022-12-19T01:59:17;100948.92;;;-10.88;100.00
35291;BME280;21411;50.024;19.220;2022-12-19T02:01:44;100946.77;;;-10.90;100.00
35291;BME280;21411;50.024;19.220;2022-12-19T02:04:11;100943.64;;;-10.90;100.00
35291;BME280;21411;50.024;19.220;2022-12-19T02:06:40;100939.71;;;-10.90;100.00
35291;BME280;21411;50.024;19.220;2022-12-19T02:09:10;100933.98;;;-10.91;100.00
35291;BME280;21411;50.024;19.220;2022-12-19T02:11:37;100926.41;;;-10.91;100.00
35291;BME280;21411;50.024;19.220;2022-12-19T02:14:03;100921.70;;;-10.93;100.00
35291;BME280;21411;50.024;19.220;2022-12-19T02:27:57;100931.41;;;-11.05;100.00
35291;BME280;21411;50.024;19.220;2022-12-19T02:33:13;100936.00;;;-11.09;100.00
35291;BME280;21411;50.024;19.220;2022-12-19T02:35:50;100936.71;;;-11.12;100.00
35291;BME280;21411;50.024;19.220;2022-12-19T02:38:39;100934.58;;;-11.13;100.00
35291;BME280;21411;50.024;19.220;2022-12-19T02:41:14;100928.98;;;-11.15;100.00
35291;BME280;21411;50.024;19.220;2022-12-19T02:43:46;100931.17;;;-11.16;100.00
35291;BME280;21411;50.024;19.220;2022-12-19T02:46:15;100927.31;;;-11.18;100.00
35291;BME280;21411;50.024;19.220;2022-12-19T02:48:42;100926.70;;;-11.20;100.00
35291;BME280;21411;50.024;19.220;2022-12-19T02:51:09;100930.23;;;-11.21;100.00
35291;BME280;21411;50.024;19.220;2022-12-19T02:53:37;100926.46;;;-11.21;100.00
35291;BME280;21411;50.024;19.220;2022-12-19T02:59:05;100924.37;;;-11.21;100.00
35291;BME280;21411;50.024;19.220;2022-12-19T03:01:45;100926.61;;;-11.21;100.00
35291;BME280;21411;50.024;19.220;2022-12-19T03:04:38;100930.92;;;-11.21;100.00
35291;BME280;21411;50.024;19.220;2022-12-19T03:07:21;100930.38;;;-11.21;100.00
35291;BME280;21411;50.024;19.220;2022-12-19T03:10:17;100927.78;;;-11.22;100.00
35291;BME280;21411;50.024;19.220;2022-12-19T03:13:06;100926.58;;;-11.25;100.00
35291;BME280;21411;50.024;19.220;2022-12-19T03:15:33;100917.74;;;-11.30;100.00
35291;BME280;21411;50.024;19.220;2022-12-19T03:18:00;100917.35;;;-11.35;100.00
35291;BME280;21411;50.024;19.220;2022-12-19T03:23:01;100901.44;;;-11.40;100.00
35291;BME280;21411;50.024;19.220;2022-12-19T03:25:28;100897.56;;;-11.42;100.00
35291;BME280;21411;50.024;19.220;2022-12-19T03:28:00;100898.67;;;-11.44;100.00
35291;BME280;21411;50.024;19.220;2022-12-19T03:30:28;100903.98;;;-11.45;100.00
35291;BME280;21411;50.024;19.220;2022-12-19T03:32:56;100909.71;;;-11.46;100.00
35291;BME280;21411;50.024;19.220;2022-12-19T03:35:26;100910.20;;;-11.46;100.00
35291;BME280;21411;50.024;19.220;2022-12-19T03:37:56;100909.48;;;-11.47;100.00
35291;BME280;21411;50.024;19.220;2022-12-19T03:40:27;100915.10;;;-11.48;100.00
35291;BME280;21411;50.024;19.220;2022-12-19T03:43:00;100919.48;;;-11.46;100.00
35291;BME280;21411;50.024;19.220;2022-12-19T03:48:25;100926.51;;;-11.46;100.00
35291;BME280;21411;50.024;19.220;2022-12-19T03:53:40;100916.58;;;-11.46;100.00
35291;BME280;21411;50.024;19.220;2022-12-19T03:56:17;100910.02;;;-11.47;100.00
35291;BME280;21411;50.024;19.220;2022-12-19T03:58:51;100905.96;;;-11.49;100.00
35291;BME280;21411;50.024;19.220;2022-12-19T04:01:20;100896.31;;;-11.50;100.00
35291;BME280;21411;50.024;19.220;2022-12-19T04:03:47;100894.35;;;-11.52;100.00
35291;BME280;21411;50.024;19.220;2022-12-19T04:06:13;100890.95;;;-11.54;100.00
35291;BME280;21411;50.024;19.220;2022-12-19T04:08:40;100891.28;;;-11.58;100.00
35291;BME280;21411;50.024;19.220;2022-12-19T04:11:12;100898.52;;;-11.60;100.00
35291;BME280;21411;50.024;19.220;2022-12-19T04:13:47;100892.73;;;-11.63;100.00
35291;BME280;21411;50.024;19.220;2022-12-19T04:17:01;100892.92;;;-11.65;100.00
35291;BME280;21411;50.024;19.220;2022-12-19T04:19:52;100891.98;;;-11.67;100.00
35291;BME280;21411;50.024;19.220;2022-12-19T04:22:24;100892.98;;;-11.68;100.00
35291;BME280;21411;50.024;19.220;2022-12-19T04:24:52;100892.22;;;-11.69;100.00
35291;BME280;21411;50.024;19.220;2022-12-19T04:27:20;100891.84;;;-11.70;100.00
35291;BME280;21411;50.024;19.220;2022-12-19T04:29:47;100886.59;;;-11.72;100.00
35291;BME280;21411;50.024;19.220;2022-12-19T04:32:15;100880.27;;;-11.75;100.00
35291;BME280;21411;50.024;19.220;2022-12-19T04:34:42;100875.55;;;-11.77;100.00
35291;BME280;21411;50.024;19.220;2022-12-19T04:37:07;100872.98;;;-11.80;100.00
35291;BME280;21411;50.024;19.220;2022-12-19T04:39:34;100862.98;;;-11.81;100.00
35291;BME280;21411;50.024;19.220;2022-12-19T04:42:00;100864.54;;;-11.84;100.00
35291;BME280;21411;50.024;19.220;2022-12-19T04:44:25;100871.48;;;-11.86;100.00
35291;BME280;21411;50.024;19.220;2022-12-19T04:46:51;100864.58;;;-11.87;100.00
35291;BME280;21411;50.024;19.220;2022-12-19T04:49:17;100861.05;;;-11.89;100.00
35291;BME280;21411;50.024;19.220;2022-12-19T04:51:43;100867.91;;;-11.92;100.00
35291;BME280;21411;50.024;19.220;2022-12-19T04:54:09;100866.77;;;-11.94;100.00
35291;BME280;21411;50.024;19.220;2022-12-19T04:56:34;100865.83;;;-11.96;100.00
35291;BME280;21411;50.024;19.220;2022-12-19T04:59:00;100869.48;;;-11.98;100.00
35291;BME280;21411;50.024;19.220;2022-12-19T05:01:27;100869.08;;;-11.99;100.00
35291;BME280;21411;50.024;19.220;2022-12-19T05:03:52;100854.58;;;-12.01;100.00
35291;BME280;21411;50.024;19.220;2022-12-19T05:06:19;100849.52;;;-12.03;100.00
35291;BME280;21411;50.024;19.220;2022-12-19T05:08:45;100844.24;;;-12.05;100.00
35291;BME280;21411;50.024;19.220;2022-12-19T05:11:13;100842.85;;;-12.09;100.00
35291;BME280;21411;50.024;19.220;2022-12-19T05:13:40;100842.75;;;-12.11;100.00
35291;BME280;21411;50.024;19.220;2022-12-19T05:16:08;100842.65;;;-12.13;100.00
35291;BME280;21411;50.024;19.220;2022-12-19T05:18:36;100835.21;;;-12.14;100.00
35291;BME280;21411;50.024;19.220;2022-12-19T05:21:03;100832.86;;;-12.17;100.00
35291;BME280;21411;50.024;19.220;2022-12-19T05:23:29;100835.25;;;-12.20;100.00
35291;BME280;21411;50.024;19.220;2022-12-19T05:25:59;100832.44;;;-12.21;100.00
35291;BME280;21411;50.024;19.220;2022-12-19T05:28:26;100832.88;;;-12.23;100.00
35291;BME280;21411;50.024;19.220;2022-12-19T05:31:01;100825.91;;;-12.25;100.00
35291;BME280;21411;50.024;19.220;2022-12-19T05:33:27;100838.46;;;-12.27;100.00
35291;BME280;21411;50.024;19.220;2022-12-19T05:35:53;100840.41;;;-12.29;100.00
35291;BME280;21411;50.024;19.220;2022-12-19T05:38:19;100843.21;;;-12.31;100.00
35291;BME280;21411;50.024;19.220;2022-12-19T05:40:45;100842.29;;;-12.32;100.00
35291;BME280;21411;50.024;19.220;2022-12-19T05:43:11;100838.30;;;-12.33;100.00
35291;BME280;21411;50.024;19.220;2022-12-19T05:45:38;100845.45;;;-12.34;100.00
35291;BME280;21411;50.024;19.220;2022-12-19T05:48:04;100849.89;;;-12.34;100.00
35291;BME280;21411;50.024;19.220;2022-12-19T05:50:30;100848.63;;;-12.36;100.00
35291;BME280;21411;50.024;19.220;2022-12-19T05:52:57;100854.78;;;-12.39;100.00
35291;BME280;21411;50.024;19.220;2022-12-19T05:55:23;100851.48;;;-12.43;100.00
35291;BME280;21411;50.024;19.220;2022-12-19T05:57:49;100844.48;;;-12.45;100.00
35291;BME280;21411;50.024;19.220;2022-12-19T06:00:15;100843.23;;;-12.47;100.00
35291;BME280;21411;50.024;19.220;2022-12-19T06:02:44;100843.70;;;-12.47;100.00
35291;BME280;21411;50.024;19.220;2022-12-19T06:05:10;100852.86;;;-12.49;100.00
35291;BME280;21411;50.024;19.220;2022-12-19T06:07:37;100849.55;;;-12.50;100.00
35291;BME280;21411;50.024;19.220;2022-12-19T06:10:04;100849.14;;;-12.54;100.00
35291;BME280;21411;50.024;19.220;2022-12-19T06:12:31;100843.89;;;-12.59;100.00
35291;BME280;21411;50.024;19.220;2022-12-19T06:14:57;100847.09;;;-12.63;100.00
35291;BME280;21411;50.024;19.220;2022-12-19T06:17:23;100850.41;;;-12.71;100.00
35291;BME280;21411;50.024;19.220;2022-12-19T06:19:49;100848.88;;;-12.80;100.00
35291;BME280;21411;50.024;19.220;2022-12-19T06:22:15;100846.86;;;-12.89;100.00
35291;BME280;21411;50.024;19.220;2022-12-19T06:24:41;100854.98;;;-12.96;100.00
35291;BME280;21411;50.024;19.220;2022-12-19T06:27:07;100851.52;;;-13.03;100.00
35291;BME280;21411;50.024;19.220;2022-12-19T06:29:33;100859.23;;;-13.06;100.00
35291;BME280;21411;50.024;19.220;2022-12-19T06:31:59;100859.98;;;-13.11;100.00
35291;BME280;21411;50.024;19.220;2022-12-19T06:34:25;100869.38;;;-13.14;100.00
35291;BME280;21411;50.024;19.220;2022-12-19T06:36:54;100864.80;;;-13.19;100.00
35291;BME280;21411;50.024;19.220;2022-12-19T06:39:20;100864.45;;;-13.22;100.00
35291;BME280;21411;50.024;19.220;2022-12-19T06:41:47;100861.23;;;-13.25;100.00
35291;BME280;21411;50.024;19.220;2022-12-19T06:44:32;100863.34;;;-13.28;100.00
35291;BME280;21411;50.024;19.220;2022-12-19T06:46:58;100864.02;;;-13.28;100.00
35291;BME280;21411;50.024;19.220;2022-12-19T06:49:24;100862.73;;;-13.26;100.00
35291;BME280;21411;50.024;19.220;2022-12-19T06:51:50;100867.23;;;-13.21;100.00
35291;BME280;21411;50.024;19.220;2022-12-19T06:54:16;100867.31;;;-13.17;100.00
35291;BME280;21411;50.024;19.220;2022-12-19T06:56:43;100868.20;;;-13.17;100.00
35291;BME280;21411;50.024;19.220;2022-12-19T06:59:14;100859.79;;;-13.17;100.00
35291;BME280;21411;50.024;19.220;2022-12-19T07:01:56;100858.42;;;-13.17;100.00
35291;BME280;21411;50.024;19.220;2022-12-19T07:04:45;100864.80;;;-13.16;100.00
35291;BME280;21411;50.024;19.220;2022-12-19T07:07:13;100854.48;;;-13.14;100.00
35291;BME280;21411;50.024;19.220;2022-12-19T07:09:39;100850.32;;;-13.13;100.00
35291;BME280;21411;50.024;19.220;2022-12-19T07:12:05;100853.29;;;-13.08;100.00
35291;BME280;21411;50.024;19.220;2022-12-19T07:14:31;100845.59;;;-12.99;100.00
35291;BME280;21411;50.024;19.220;2022-12-19T07:16:59;100850.16;;;-12.91;100.00
35291;BME280;21411;50.024;19.220;2022-12-19T07:19:29;100845.20;;;-12.82;100.00
35291;BME280;21411;50.024;19.220;2022-12-19T07:21:56;100844.73;;;-12.72;100.00
35291;BME280;21411;50.024;19.220;2022-12-19T07:24:24;100840.09;;;-12.63;100.00
35291;BME280;21411;50.024;19.220;2022-12-19T07:26:50;100836.10;;;-12.55;100.00
35291;BME280;21411;50.024;19.220;2022-12-19T07:29:16;100834.23;;;-12.45;100.00
35291;BME280;21411;50.024;19.220;2022-12-19T07:31:43;100832.89;;;-12.35;100.00
35291;BME280;21411;50.024;19.220;2022-12-19T07:34:08;100825.11;;;-12.27;100.00
35291;BME280;21411;50.024;19.220;2022-12-19T07:36:34;100826.05;;;-12.19;100.00
35291;BME280;21411;50.024;19.220;2022-12-19T07:39:01;100826.71;;;-12.13;100.00
35291;BME280;21411;50.024;19.220;2022-12-19T07:41:27;100830.81;;;-12.07;100.00
35291;BME280;21411;50.024;19.220;2022-12-19T07:43:52;100822.55;;;-12.01;100.00
35291;BME280;21411;50.024;19.220;2022-12-19T07:46:19;100819.55;;;-11.96;100.00
35291;BME280;21411;50.024;19.220;2022-12-19T07:48:46;100819.29;;;-11.91;100.00
35291;BME280;21411;50.024;19.220;2022-12-19T07:51:12;100814.44;;;-11.85;100.00
35291;BME280;21411;50.024;19.220;2022-12-19T07:53:38;100817.66;;;-11.79;100.00
35291;BME280;21411;50.024;19.220;2022-12-19T07:56:04;100809.38;;;-11.73;100.00
35291;BME280;21411;50.024;19.220;2022-12-19T07:58:30;100809.02;;;-11.67;100.00
35291;BME280;21411;50.024;19.220;2022-12-19T08:00:59;100810.20;;;-11.60;100.00
35291;BME280;21411;50.024;19.220;2022-12-19T08:03:25;100806.19;;;-11.52;100.00
35291;BME280;21411;50.024;19.220;2022-12-19T08:05:58;100803.70;;;-11.43;100.00
35291;BME280;21411;50.024;19.220;2022-12-19T08:08:25;100801.84;;;-11.36;100.00
35291;BME280;21411;50.024;19.220;2022-12-19T08:10:52;100790.95;;;-11.28;100.00
35291;BME280;21411;50.024;19.220;2022-12-19T08:13:18;100780.99;;;-11.17;100.00
35291;BME280;21411;50.024;19.220;2022-12-19T08:15:43;100777.20;;;-11.07;100.00
35291;BME280;21411;50.024;19.220;2022-12-19T08:18:09;100782.98;;;-11.00;100.00
35291;BME280;21411;50.024;19.220;2022-12-19T08:20:35;100788.30;;;-10.94;100.00
35291;BME280;21411;50.024;19.220;2022-12-19T08:23:01;100788.73;;;-10.88;100.00
35291;BME280;21411;50.024;19.220;2022-12-19T08:25:27;100789.43;;;-10.80;100.00
35291;BME280;21411;50.024;19.220;2022-12-19T08:27:53;100785.61;;;-10.74;100.00
35291;BME280;21411;50.024;19.220;2022-12-19T08:30:19;100791.52;;;-10.69;100.00
35291;BME280;21411;50.024;19.220;2022-12-19T08:32:46;100792.48;;;-10.60;100.00
35291;BME280;21411;50.024;19.220;2022-12-19T08:35:12;100796.14;;;-10.47;100.00
35291;BME280;21411;50.024;19.220;2022-12-19T08:37:41;100793.11;;;-10.39;100.00
35291;BME280;21411;50.024;19.220;2022-12-19T08:40:09;100793.45;;;-10.31;100.00
35291;BME280;21411;50.024;19.220;2022-12-19T08:42:35;100783.11;;;-10.24;100.00
35291;BME280;21411;50.024;19.220;2022-12-19T08:45:01;100780.59;;;-10.14;100.00
35291;BME280;21411;50.024;19.220;2022-12-19T08:47:31;100778.25;;;-10.09;100.00
35291;BME280;21411;50.024;19.220;2022-12-19T08:49:57;100780.16;;;-10.04;100.00
35291;BME280;21411;50.024;19.220;2022-12-19T08:52:23;100778.11;;;-10.01;100.00
35291;BME280;21411;50.024;19.220;2022-12-19T08:54:50;100784.30;;;-9.93;100.00
35291;BME280;21411;50.024;19.220;2022-12-19T08:57:15;100785.48;;;-9.85;100.00
35291;BME280;21411;50.024;19.220;2022-12-19T08:59:41;100783.58;;;-9.74;100.00
35291;BME280;21411;50.024;19.220;2022-12-19T09:02:08;100777.13;;;-9.64;100.00
35291;BME280;21411;50.024;19.220;2022-12-19T09:04:34;100770.33;;;-9.54;100.00
35291;BME280;21411;50.024;19.220;2022-12-19T09:07:01;100762.08;;;-9.45;100.00
35291;BME280;21411;50.024;19.220;2022-12-19T09:09:27;100770.10;;;-9.39;100.00
35291;BME280;21411;50.024;19.220;2022-12-19T09:11:53;100768.95;;;-9.29;100.00
35291;BME280;21411;50.024;19.220;2022-12-19T09:14:19;100772.23;;;-9.25;100.00
35291;BME280;21411;50.024;19.220;2022-12-19T09:16:45;100775.77;;;-9.18;100.00
35291;BME280;21411;50.024;19.220;2022-12-19T09:19:11;100763.67;;;-9.11;100.00
35291;BME280;21411;50.024;19.220;2022-12-19T09:21:40;100752.81;;;-9.07;100.00
35291;BME280;21411;50.024;19.220;2022-12-19T09:24:07;100742.34;;;-9.02;100.00
35291;BME280;21411;50.024;19.220;2022-12-19T09:26:34;100756.36;;;-8.91;100.00
35291;BME280;21411;50.024;19.220;2022-12-19T09:29:00;100757.96;;;-8.86;100.00
35291;BME280;21411;50.024;19.220;2022-12-19T09:31:28;100751.92;;;-8.81;100.00
35291;BME280;21411;50.024;19.220;2022-12-19T09:33:54;100749.83;;;-8.73;100.00
35291;BME280;21411;50.024;19.220;2022-12-19T09:36:23;100744.52;;;-8.63;100.00
35291;BME280;21411;50.024;19.220;2022-12-19T09:38:52;100733.30;;;-8.55;100.00
35291;BME280;21411;50.024;19.220;2022-12-19T09:44:07;100730.44;;;-8.39;100.00
35291;BME280;21411;50.024;19.220;2022-12-19T09:46:45;100735.25;;;-8.29;100.00
35291;BME280;21411;50.024;19.220;2022-12-19T09:49:15;100735.39;;;-8.16;100.00
35291;BME280;21411;50.024;19.220;2022-12-19T09:54:45;100729.23;;;-7.85;100.00
35291;BME280;21411;50.024;19.220;2022-12-19T10:00:06;100714.70;;;-7.77;100.00
35291;BME280;21411;50.024;19.220;2022-12-19T10:05:46;100697.73;;;-7.74;100.00
35291;BME280;21411;50.024;19.220;2022-12-19T10:08:17;100684.48;;;-7.67;100.00
35291;BME280;21411;50.024;19.220;2022-12-19T10:16:20;100671.34;;;-7.57;100.00
35291;BME280;21411;50.024;19.220;2022-12-19T10:18:54;100668.48;;;-7.50;100.00
35291;BME280;21411;50.024;19.220;2022-12-19T10:21:32;100666.02;;;-7.41;100.00
35291;BME280;21411;50.024;19.220;2022-12-19T10:26:53;100661.06;;;-7.34;100.00
35291;BME280;21411;50.024;19.220;2022-12-19T10:34:46;100653.88;;;-7.10;100.00
35291;BME280;21411;50.024;19.220;2022-12-19T10:37:27;100648.69;;;-6.98;100.00
35291;BME280;21411;50.024;19.220;2022-12-19T10:45:15;100637.41;;;-6.53;100.00
35291;BME280;21411;50.024;19.220;2022-12-19T10:47:42;100637.83;;;-6.44;100.00
35291;BME280;21411;50.024;19.220;2022-12-19T10:50:13;100635.40;;;-6.39;100.00
35291;BME280;21411;50.024;19.220;2022-12-19T10:52:52;100627.89;;;-6.29;100.00
35291;BME280;21411;50.024;19.220;2022-12-19T10:55:48;100615.54;;;-6.25;100.00
35291;BME280;21411;50.024;19.220;2022-12-19T11:01:13;100613.02;;;-6.22;100.00
35291;BME280;21411;50.024;19.220;2022-12-19T11:03:43;100603.63;;;-6.17;100.00
35291;BME280;21411;50.024;19.220;2022-12-19T11:09:25;100600.20;;;-6.04;100.00
35291;BME280;21411;50.024;19.220;2022-12-19T11:14:26;100597.09;;;-5.96;100.00
35291;BME280;21411;50.024;19.220;2022-12-19T11:16:52;100592.59;;;-5.81;100.00
35291;BME280;21411;50.024;19.220;2022-12-19T11:19:32;100590.15;;;-5.74;100.00
35291;BME280;21411;50.024;19.220;2022-12-19T11:22:04;100583.54;;;-5.76;100.00
35291;BME280;21411;50.024;19.220;2022-12-19T11:24:36;100579.28;;;-5.73;100.00
35291;BME280;21411;50.024;19.220;2022-12-19T11:27:43;100583.41;;;-5.73;100.00
35291;BME280;21411;50.024;19.220;2022-12-19T11:32:42;100572.59;;;-5.78;100.00
35291;BME280;21411;50.024;19.220;2022-12-19T11:35:23;100572.33;;;-5.82;100.00
35291;BME280;21411;50.024;19.220;2022-12-19T11:37:58;100572.21;;;-5.85;100.00
35291;BME280;21411;50.024;19.220;2022-12-19T11:40:32;100576.02;;;-5.86;100.00
35291;BME280;21411;50.024;19.220;2022-12-19T11:43:09;100577.00;;;-5.81;100.00
35291;BME280;21411;50.024;19.220;2022-12-19T11:45:43;100569.45;;;-5.79;100.00
35291;BME280;21411;50.024;19.220;2022-12-19T11:48:39;100567.08;;;-5.77;100.00
35291;BME280;21411;50.024;19.220;2022-12-19T11:51:11;100558.44;;;-5.76;100.00
35291;BME280;21411;50.024;19.220;2022-12-19T11:56:24;100551.42;;;-5.80;100.00
35291;BME280;21411;50.024;19.220;2022-12-19T11:58:56;100539.48;;;-5.80;100.00
35291;BME280;21411;50.024;19.220;2022-12-19T12:07:20;100530.27;;;-5.82;100.00
35291;BME280;21411;50.024;19.220;2022-12-19T12:10:01;100533.86;;;-5.83;100.00
35291;BME280;21411;50.024;19.220;2022-12-19T12:12:42;100531.67;;;-5.88;100.00
35291;BME280;21411;50.024;19.220;2022-12-19T12:15:32;100533.98;;;-5.86;100.00
35291;BME280;21411;50.024;19.220;2022-12-19T12:26:55;100527.58;;;-5.71;100.00
35291;BME280;21411;50.024;19.220;2022-12-19T12:29:31;100522.90;;;-5.71;100.00
35291;BME280;21411;50.024;19.220;2022-12-19T12:32:12;100517.02;;;-5.70;100.00
35291;BME280;21411;50.024;19.220;2022-12-19T12:35:09;100510.53;;;-5.67;100.00
35291;BME280;21411;50.024;19.220;2022-12-19T12:43:41;100502.48;;;-5.55;100.00
35291;BME280;21411;50.024;19.220;2022-12-19T12:46:13;100498.83;;;-5.56;100.00
35291;BME280;21411;50.024;19.220;2022-12-19T12:51:18;100503.43;;;-5.59;100.00
35291;BME280;21411;50.024;19.220;2022-12-19T12:53:46;100499.48;;;-5.66;100.00
35291;BME280;21411;50.024;19.220;2022-12-19T12:56:15;100495.70;;;-5.71;100.00
35291;BME280;21411;50.024;19.220;2022-12-19T13:01:16;100484.36;;;-5.84;100.00
35291;BME280;21411;50.024;19.220;2022-12-19T13:03:52;100486.39;;;-5.86;100.00
35291;BME280;21411;50.024;19.220;2022-12-19T13:06:24;100492.02;;;-5.89;100.00
35291;BME280;21411;50.024;19.220;2022-12-19T13:08:56;100487.50;;;-5.89;100.00
35291;BME280;21411;50.024;19.220;2022-12-19T13:17:06;100472.60;;;-5.90;100.00
35291;BME280;21411;50.024;19.220;2022-12-19T13:19:52;100466.48;;;-5.92;100.00
35291;BME280;21411;50.024;19.220;2022-12-19T13:22:42;100460.05;;;-5.94;100.00
35291;BME280;21411;50.024;19.220;2022-12-19T13:30:25;100464.32;;;-5.98;100.00
35291;BME280;21411;50.024;19.220;2022-12-19T13:38:14;100463.27;;;-6.13;100.00
35291;BME280;21411;50.024;19.220;2022-12-19T13:43:17;100460.67;;;-6.21;100.00
35291;BME280;21411;50.024;19.220;2022-12-19T13:48:54;100457.38;;;-6.28;100.00
35291;BME280;21411;50.024;19.220;2022-12-19T13:51:22;100455.53;;;-6.32;100.00
35291;BME280;21411;50.024;19.220;2022-12-19T13:53:52;100452.96;;;-6.39;100.00
35291;BME280;21411;50.024;19.220;2022-12-19T13:56:19;100445.02;;;-6.45;100.00
35291;BME280;21411;50.024;19.220;2022-12-19T13:58:57;100447.00;;;-6.49;100.00
35291;BME280;21411;50.024;19.220;2022-12-19T14:01:32;100445.29;;;-6.56;100.00
35291;BME280;21411;50.024;19.220;2022-12-19T14:04:11;100442.55;;;-6.61;100.00
35291;BME280;21411;50.024;19.220;2022-12-19T14:06:42;100436.56;;;-6.66;100.00
35291;BME280;21411;50.024;19.220;2022-12-19T14:09:28;100428.53;;;-6.69;100.00
35291;BME280;21411;50.024;19.220;2022-12-19T14:11:57;100425.45;;;-6.74;100.00
35291;BME280;21411;50.024;19.220;2022-12-19T14:14:25;100429.27;;;-6.80;100.00
35291;BME280;21411;50.024;19.220;2022-12-19T14:17:15;100425.64;;;-6.87;100.00
35291;BME280;21411;50.024;19.220;2022-12-19T14:19:45;100423.22;;;-6.94;100.00
35291;BME280;21411;50.024;19.220;2022-12-19T14:25:01;100423.33;;;-7.09;100.00
35291;BME280;21411;50.024;19.220;2022-12-19T14:29:53;100420.77;;;-7.26;100.00
35291;BME280;21411;50.024;19.220;2022-12-19T14:32:19;100416.63;;;-7.33;100.00
35291;BME280;21411;50.024;19.220;2022-12-19T14:34:48;100407.16;;;-7.38;100.00
35291;BME280;21411;50.024;19.220;2022-12-19T14:37:27;100414.25;;;-7.44;100.00
35291;BME280;21411;50.024;19.220;2022-12-19T14:39:59;100408.40;;;-7.50;100.00